Time;durP1;ratioP1;P1;durP2;ratioP2;P2;SDS_P1;SDS_P2;PMS_P1;PMS_P2;Temp;Humidity;BMP_temperature;BMP_pressure;BME280_temperature;BME280_humidity;BME280_pressure;Samples;Min_cycle;Max_cycle;Signal;HPM_P1;HPM_P2
2022/12/29 00:01:35;;;;;;;;;0.00;0.00;;;;;12.11;86.85;100356.38;5037290;28;45428;-85
2022/12/29 00:04:00;;;;;;;;;0.00;0.00;;;;;12.06;86.97;100346.16;5019754;28;45386;-86
2022/12/29 00:06:27;;;;;;;;;0.00;0.00;;;;;12.02;87.21;100352.41;5037280;28;45614;-86
2022/12/29 00:08:53;;;;;;;;;0.00;0.00;;;;;11.98;87.18;100336.03;5002858;28;47534;-86
2022/12/29 00:11:21;;;;;;;;;0.00;0.00;;;;;11.98;87.36;100343.00;5024474;28;45313;-86
2022/12/29 00:16:31;;;;;;;;;1.75;0.00;;;;;12.00;87.01;100334.22;5022088;28;45279;-85
2022/12/29 00:18:56;;;;;;;;;0.00;0.00;;;;;12.04;86.84;100327.09;5036928;28;45374;-86
2022/12/29 00:35:08;;;;;;;;;4.25;1.00;;;;;11.97;88.31;100326.50;5037102;28;45495;-84
2022/12/29 00:45:50;;;;;;;;;1.50;0.00;;;;;11.93;90.46;100352.78;5041924;28;45404;-86
2022/12/29 00:49:29;;;;;;;;;1.00;0.00;;;;;11.85;90.75;100341.75;5056968;28;45475;-85
2022/12/29 00:51:01;;;;;;;;;0.00;0.00;;;;;11.75;91.09;100334.31;5041569;28;46348;-84
2022/12/29 00:53:26;;;;;;;;;1.00;0.00;;;;;11.66;91.69;100337.28;5038555;28;49087;-83
2022/12/29 00:55:51;;;;;;;;;3.00;0.00;;;;;11.59;91.56;100321.06;5037977;28;54105;-84
2022/12/29 00:58:17;;;;;;;;;0.00;0.00;;;;;11.56;91.73;100325.53;5037960;28;59668;-84
2022/12/29 01:00:42;;;;;;;;;0.00;0.00;;;;;11.53;92.06;100325.66;5055849;28;63169;-83
2022/12/29 01:03:07;;;;;;;;;0.75;0.00;;;;;11.50;92.28;100318.81;5037568;28;57016;-84
2022/12/29 01:05:36;;;;;;;;;0.75;0.00;;;;;11.51;92.25;100317.88;5037940;28;57336;-84
2022/12/29 01:08:01;;;;;;;;;0.00;0.00;;;;;11.50;92.45;100329.25;5056546;28;45340;-83
2022/12/29 01:10:27;;;;;;;;;0.00;0.00;;;;;11.46;92.41;100319.84;5044799;28;56372;-84
2022/12/29 01:12:52;;;;;;;;;0.50;0.00;;;;;11.47;92.26;100320.69;5018488;28;49845;-84
2022/12/29 01:15:17;;;;;;;;;2.00;0.00;;;;;11.47;92.20;100313.72;5035630;28;62855;-83
2022/12/29 01:17:43;;;;;;;;;1.00;0.00;;;;;11.47;92.37;100325.91;5036296;28;45586;-83
2022/12/29 01:20:09;;;;;;;;;0.00;0.00;;;;;11.49;92.30;100319.72;5035752;28;55096;-84
2022/12/29 01:22:34;;;;;;;;;0.75;0.00;;;;;11.50;92.32;100311.00;5036028;28;45297;-84
2022/12/29 01:24:59;;;;;;;;;2.00;0.00;;;;;11.54;92.11;100309.13;5017781;28;51319;-83
2022/12/29 01:27:25;;;;;;;;;0.00;0.00;;;;;11.57;92.03;100316.78;5035664;28;53558;-83
2022/12/29 01:29:51;;;;;;;;;1.50;0.00;;;;;11.58;91.80;100327.16;5001545;28;50769;-84
2022/12/29 01:32:16;;;;;;;;;0.75;0.00;;;;;11.61;91.65;100315.78;5018204;28;45462;-84
2022/12/29 01:34:41;;;;;;;;;0.00;0.00;;;;;11.63;91.92;100320.00;5018206;28;45254;-84
2022/12/29 01:37:07;;;;;;;;;0.00;0.00;;;;;11.66;91.90;100319.03;5018339;28;45573;-84
2022/12/29 01:39:32;;;;;;;;;0.00;0.00;;;;;11.68;91.56;100322.44;5033433;28;67140;-84
2022/12/29 01:41:57;;;;;;;;;0.00;0.00;;;;;11.70;91.81;100324.97;5017246;28;61218;-83
2022/12/29 01:44:51;;;;;;;;;0.00;0.00;;;;;11.70;91.55;100325.84;5035517;28;55964;-84
2022/12/29 01:47:28;;;;;;;;;0.00;0.00;;;;;11.72;91.10;100315.34;5035732;28;45564;-84
2022/12/29 01:49:56;;;;;;;;;0.00;0.00;;;;;11.74;90.55;100313.53;5017952;28;45414;-84
2022/12/29 01:52:22;;;;;;;;;1.00;0.00;;;;;11.75;91.00;100330.84;5017904;28;45574;-83
2022/12/29 01:54:51;;;;;;;;;0.00;0.00;;;;;11.75;90.43;100325.66;5017743;28;45275;-83
2022/12/29 01:57:21;;;;;;;;;0.00;0.00;;;;;11.76;90.51;100322.16;5017853;28;45359;-84
2022/12/29 01:59:53;;;;;;;;;0.00;0.00;;;;;11.76;89.71;100304.72;5017626;28;47214;-84
2022/12/29 02:02:18;;;;;;;;;0.00;0.00;;;;;11.75;89.49;100318.66;5017798;28;45266;-83
2022/12/29 02:04:44;;;;;;;;;0.50;0.00;;;;;11.73;88.81;100340.50;5017554;28;49800;-83
2022/12/29 02:07:15;;;;;;;;;0.00;0.00;;;;;11.72;88.12;100315.34;5017385;28;52597;-83
2022/12/29 02:09:41;;;;;;;;;1.00;0.00;;;;;11.71;88.37;100326.69;5017174;28;46589;-83
2022/12/29 02:12:07;;;;;;;;;0.00;0.00;;;;;11.67;87.62;100322.50;5016859;28;62386;-83
2022/12/29 02:14:32;;;;;;;;;1.00;0.00;;;;;11.68;87.79;100337.22;5018519;28;45483;-83
2022/12/29 02:17:22;;;;;;;;;0.00;0.00;;;;;11.66;87.66;100339.88;5020310;28;67063;-83
2022/12/29 02:20:16;;;;;;;;;0.00;0.00;;;;;11.59;87.14;100336.69;5038978;28;45571;-83
2022/12/29 02:22:54;;;;;;;;;0.00;0.00;;;;;11.54;88.00;100343.00;5038583;28;45758;-84
2022/12/29 02:25:43;;;;;;;;;0.00;0.00;;;;;11.46;87.52;100342.44;5038961;28;45598;-83
2022/12/29 02:28:39;;;;;;;;;0.00;0.00;;;;;11.36;87.66;100339.34;5039061;28;45371;-84
2022/12/29 02:31:17;;;;;;;;;0.00;0.00;;;;;11.28;87.46;100316.19;5038797;28;46463;-84
2022/12/29 02:33:42;;;;;;;;;0.00;0.00;;;;;11.20;87.18;100326.06;5020886;28;45231;-83
2022/12/29 02:36:23;;;;;;;;;0.75;0.00;;;;;11.15;86.92;100314.97;5038908;28;45341;-84
2022/12/29 02:38:59;;;;;;;;;0.00;0.00;;;;;11.10;87.08;100311.69;5020462;28;45294;-84
2022/12/29 02:41:40;;;;;;;;;0.00;0.00;;;;;11.09;87.15;100309.97;5020828;28;46303;-84
2022/12/29 02:44:17;;;;;;;;;0.00;0.00;;;;;11.09;87.21;100313.44;5020761;28;46188;-84
2022/12/29 02:46:53;;;;;;;;;0.00;0.00;;;;;11.09;87.03;100323.00;5020910;28;45340;-83
2022/12/29 02:49:34;;;;;;;;;0.00;0.00;;;;;11.09;86.78;100325.59;5020720;28;45429;-84
2022/12/29 02:52:06;;;;;;;;;0.00;0.00;;;;;11.10;86.86;100332.50;5020257;28;46185;-83
2022/12/29 02:54:41;;;;;;;;;0.00;0.00;;;;;11.13;87.04;100324.59;5020789;28;45493;-83
2022/12/29 02:57:15;;;;;;;;;0.00;0.00;;;;;11.12;87.11;100325.50;5021859;28;45290;-84
2022/12/29 02:59:45;;;;;;;;;1.00;0.00;;;;;11.13;86.93;100337.63;5020634;28;45791;-84
2022/12/29 03:02:16;;;;;;;;;0.00;0.00;;;;;11.14;86.96;100329.72;5003851;28;48268;-84
2022/12/29 03:04:53;;;;;;;;;0.00;0.00;;;;;11.17;87.13;100319.19;5038207;28;45356;-84
2022/12/29 03:07:39;;;;;;;;;1.25;1.00;;;;;11.17;86.88;100319.19;5037953;28;45408;-83
2022/12/29 03:10:15;;;;;;;;;0.00;0.00;;;;;11.17;86.45;100313.16;5037815;28;45457;-84
2022/12/29 03:16:03;;;;;;;;;1.00;0.00;;;;;11.13;86.60;100322.00;5022974;28;45626;-84
2022/12/29 03:18:52;;;;;;;;;0.00;0.00;;;;;11.09;86.18;100317.78;5005682;28;45300;-83
2022/12/29 03:22:26;;;;;;;;;0.00;0.00;;;;;11.06;86.24;100320.53;5037873;28;45370;-84
2022/12/29 03:24:17;;;;;;;;;0.00;0.00;;;;;11.03;86.41;100324.94;5022848;28;45444;-84
2022/12/29 03:26:45;;;;;;;;;1.00;0.00;;;;;11.02;86.05;100330.22;5019631;28;45407;-83
2022/12/29 03:29:11;;;;;;;;;0.00;0.00;;;;;11.00;86.07;100322.44;5020360;28;45302;-84
2022/12/29 03:31:38;;;;;;;;;0.00;0.00;;;;;10.98;86.16;100328.63;5038025;28;45595;-84
2022/12/29 03:34:06;;;;;;;;;0.00;0.00;;;;;10.95;85.90;100334.78;5020000;28;46715;-84
2022/12/29 03:36:39;;;;;;;;;0.25;0.00;;;;;10.95;86.24;100329.56;5019202;28;61467;-84
2022/12/29 03:39:11;;;;;;;;;0.00;0.00;;;;;10.95;86.07;100326.13;5019840;28;45266;-84
2022/12/29 03:41:38;;;;;;;;;0.00;0.00;;;;;10.94;86.34;100329.63;5037645;28;45395;-84
2022/12/29 03:44:06;;;;;;;;;0.00;0.00;;;;;10.90;85.97;100336.72;5019175;28;61287;-83
2022/12/29 03:46:31;;;;;;;;;0.00;0.00;;;;;10.88;85.84;100337.66;5019872;28;45673;-84
2022/12/29 03:48:57;;;;;;;;;2.25;0.00;;;;;10.88;85.06;100322.03;5036830;28;64132;-84
2022/12/29 03:51:22;;;;;;;;;0.00;0.00;;;;;10.86;85.24;100337.72;5037420;28;45221;-84
2022/12/29 03:53:47;;;;;;;;;0.75;0.00;;;;;10.87;84.73;100328.19;5019683;28;46090;-84
2022/12/29 03:56:13;;;;;;;;;0.00;0.00;;;;;10.85;85.15;100326.47;5036930;28;63139;-84
2022/12/29 03:58:38;;;;;;;;;3.00;0.00;;;;;10.84;84.63;100331.72;5019067;28;56014;-85
2022/12/29 04:01:03;;;;;;;;;1.00;0.00;;;;;10.82;84.95;100334.38;5037424;28;45338;-84
2022/12/29 04:03:29;;;;;;;;;1.00;0.00;;;;;10.83;84.62;100343.91;5036614;28;58944;-84
2022/12/29 04:05:54;;;;;;;;;0.00;0.00;;;;;10.83;84.75;100362.13;5036997;28;45326;-84
2022/12/29 04:08:19;;;;;;;;;1.00;0.00;;;;;10.83;84.87;100343.91;5036822;28;53747;-84
2022/12/29 04:10:45;;;;;;;;;0.00;0.00;;;;;10.80;84.79;100341.41;5018232;28;64072;-84
2022/12/29 04:13:10;;;;;;;;;0.50;0.00;;;;;10.81;84.45;100347.47;5019351;28;45546;-84
2022/12/29 04:15:36;;;;;;;;;0.00;0.00;;;;;10.81;84.78;100352.69;5037085;28;45349;-84
2022/12/29 04:18:01;;;;;;;;;0.00;0.00;;;;;10.84;84.87;100360.38;5018939;28;51703;-84
2022/12/29 04:23:10;;;;;;;;;2.25;0.00;;;;;10.83;84.46;100367.34;5021813;28;45411;-84
2022/12/29 04:25:36;;;;;;;;;0.50;0.00;;;;;10.84;84.56;100370.78;5036895;28;45425;-84
2022/12/29 04:28:01;;;;;;;;;0.00;0.00;;;;;10.83;84.54;100380.34;5018696;28;54690;-84
2022/12/29 04:30:26;;;;;;;;;0.00;0.00;;;;;10.84;84.61;100387.25;5037289;28;45425;-84
2022/12/29 04:32:52;;;;;;;;;0.75;0.00;;;;;10.82;84.53;100370.81;5036295;28;52197;-84
2022/12/29 04:35:17;;;;;;;;;3.00;0.00;;;;;10.84;84.99;100384.63;5018150;28;64811;-84
2022/12/29 04:37:42;;;;;;;;;0.00;0.00;;;;;10.88;84.57;100374.13;5017491;28;62217;-84
2022/12/29 04:40:09;;;;;;;;;0.00;0.00;;;;;10.90;84.66;100383.59;5036179;28;58913;-84
2022/12/29 04:42:34;;;;;;;;;0.00;0.00;;;;;10.94;84.65;100389.50;5018709;28;45955;-84
2022/12/29 04:44:59;;;;;;;;;0.75;0.00;;;;;10.99;84.75;100385.00;5036508;28;45385;-85
2022/12/29 04:47:25;;;;;;;;;0.75;0.00;;;;;11.02;84.91;100390.94;5018117;28;52643;-84
2022/12/29 04:49:50;;;;;;;;;2.75;0.00;;;;;11.04;84.75;100396.09;5018395;28;57589;-84
2022/12/29 04:52:15;;;;;;;;;0.00;0.00;;;;;11.08;84.99;100391.63;5036399;28;45245;-85
2022/12/29 04:54:41;;;;;;;;;0.00;0.00;;;;;11.09;84.67;100394.19;5035573;28;65708;-85
2022/12/29 04:57:06;;;;;;;;;1.00;0.00;;;;;11.13;84.55;100394.94;5018386;28;56056;-85
2022/12/29 04:59:31;;;;;;;;;0.25;0.00;;;;;11.15;84.14;100393.97;5036492;28;45207;-84
2022/12/29 05:01:57;;;;;;;;;0.00;0.00;;;;;11.16;84.16;100405.22;5017271;28;64370;-85
2022/12/29 05:04:22;;;;;;;;;0.00;0.00;;;;;11.16;84.10;100410.44;5018073;28;59341;-85
2022/12/29 05:06:48;;;;;;;;;0.00;0.00;;;;;11.17;83.53;100414.75;5036245;28;45247;-85
2022/12/29 05:09:13;;;;;;;;;1.00;0.00;;;;;11.20;83.84;100402.47;5017918;28;54683;-85
2022/12/29 05:11:38;;;;;;;;;0.00;0.00;;;;;11.21;83.02;100406.75;5018094;28;47079;-84
2022/12/29 05:14:04;;;;;;;;;0.25;0.00;;;;;11.20;82.52;100402.47;5017760;28;58859;-85
2022/12/29 05:16:29;;;;;;;;;0.00;0.00;;;;;11.17;82.54;100391.31;5017602;28;60371;-85
2022/12/29 05:18:54;;;;;;;;;0.00;0.00;;;;;11.14;82.49;100400.06;5035406;28;64046;-84
2022/12/29 05:21:20;;;;;;;;;0.00;0.00;;;;;11.17;82.91;100412.16;5035322;28;69400;-84
2022/12/29 05:23:45;;;;;;;;;2.00;0.00;;;;;11.14;82.35;100410.47;5017547;28;62796;-85
2022/12/29 05:26:10;;;;;;;;;0.50;0.00;;;;;11.15;82.43;100427.81;5035731;28;51886;-84
2022/12/29 05:28:36;;;;;;;;;0.50;0.00;;;;;11.16;82.46;100421.72;5018212;28;45580;-85
2022/12/29 05:31:01;;;;;;;;;0.75;0.00;;;;;11.15;82.09;100426.97;5017801;28;47095;-85
2022/12/29 05:33:26;;;;;;;;;0.75;0.00;;;;;11.13;81.81;100423.59;5035245;28;62384;-85
2022/12/29 05:35:52;;;;;;;;;0.25;0.00;;;;;11.09;81.72;100433.25;5017656;28;55956;-85
2022/12/29 05:38:17;;;;;;;;;1.00;0.00;;;;;11.06;82.20;100435.97;5036007;28;45372;-85
2022/12/29 05:40:43;;;;;;;;;0.00;0.00;;;;;11.04;82.03;100432.56;5035473;28;54874;-85
2022/12/29 05:43:08;;;;;;;;;0.00;0.00;;;;;11.03;82.25;100431.72;5001337;28;45833;-85
2022/12/29 05:45:33;;;;;;;;;0.75;0.00;;;;;11.02;81.71;100439.59;5017413;28;48757;-85
2022/12/29 05:47:59;;;;;;;;;1.00;0.00;;;;;10.99;81.65;100435.31;5017607;28;55093;-85
2022/12/29 05:50:24;;;;;;;;;2.25;0.00;;;;;10.96;81.43;100432.84;5035120;28;58732;-85
2022/12/29 05:52:50;;;;;;;;;1.00;1.00;;;;;10.96;81.60;100432.84;5001309;28;45925;-85
2022/12/29 05:55:16;;;;;;;;;3.50;0.00;;;;;10.95;81.35;100443.31;5018263;28;45405;-86
2022/12/29 05:57:41;;;;;;;;;2.00;0.00;;;;;10.94;80.99;100450.28;5035902;28;45350;-86
2022/12/29 06:00:07;;;;;;;;;6.00;0.00;;;;;10.94;80.99;100444.19;5034456;28;59781;-86
2022/12/29 06:02:32;;;;;;;;;0.00;0.00;;;;;10.92;81.00;100443.41;5035662;28;45393;-85
2022/12/29 06:04:58;;;;;;;;;2.00;0.00;;;;;10.92;80.65;100439.06;5017193;28;58342;-85
2022/12/29 06:07:23;;;;;;;;;0.00;0.00;;;;;10.92;80.61;100452.09;5035095;28;54878;-86
2022/12/29 06:09:48;;;;;;;;;0.00;0.00;;;;;10.91;80.53;100465.16;5034919;28;51319;-85
2022/12/29 06:12:14;;;;;;;;;1.00;0.00;;;;;10.89;80.04;100464.38;5017549;28;48410;-85
2022/12/29 06:14:39;;;;;;;;;0.50;0.00;;;;;10.87;80.05;100463.56;5016865;28;50223;-86
2022/12/29 06:17:04;;;;;;;;;0.00;0.00;;;;;10.86;80.15;100470.50;5035463;28;45375;-85
2022/12/29 06:19:30;;;;;;;;;2.25;0.00;;;;;10.87;79.92;100476.59;5016580;28;64172;-85
2022/12/29 06:21:55;;;;;;;;;4.00;0.00;;;;;10.84;79.64;100474.94;5035439;28;45463;-85
2022/12/29 06:24:21;;;;;;;;;2.00;0.00;;;;;10.84;80.17;100482.75;5017480;28;45457;-85
2022/12/29 06:26:46;;;;;;;;;1.00;0.00;;;;;10.82;79.94;100481.94;5035235;28;45374;-85
2022/12/29 06:29:13;;;;;;;;;0.00;0.00;;;;;10.82;79.77;100479.34;5032954;28;65917;-85
2022/12/29 06:31:38;;;;;;;;;4.25;1.00;;;;;10.83;79.96;100491.47;5035226;28;45655;-86
2022/12/29 06:34:03;;;;;;;;;0.00;0.00;;;;;10.82;80.00;100493.19;5016996;28;57399;-85
2022/12/29 06:36:29;;;;;;;;;1.00;0.00;;;;;10.80;79.90;100487.19;5016528;28;64693;-85
2022/12/29 06:38:54;;;;;;;;;0.00;0.00;;;;;10.81;79.79;100501.94;5016718;28;60090;-85
2022/12/29 06:41:22;;;;;;;;;0.00;0.00;;;;;10.81;79.69;100522.75;5017209;28;45326;-85
2022/12/29 06:43:47;;;;;;;;;0.00;0.00;;;;;10.82;79.89;100521.00;5017177;28;45267;-85
2022/12/29 06:46:13;;;;;;;;;0.00;0.00;;;;;10.82;79.99;100515.78;5035308;28;45496;-86
2022/12/29 06:48:38;;;;;;;;;0.00;0.00;;;;;10.81;80.03;100533.19;5033772;28;46892;-85
2022/12/29 06:51:04;;;;;;;;;0.50;0.00;;;;;10.81;79.96;100525.38;5016945;28;45268;-86
2022/12/29 06:53:29;;;;;;;;;0.00;0.00;;;;;10.81;80.15;100530.56;5017202;28;45229;-85
2022/12/29 06:55:56;;;;;;;;;0.50;0.00;;;;;10.82;79.49;100542.66;5033181;28;57844;-86
2022/12/29 06:58:21;;;;;;;;;1.50;0.00;;;;;10.82;79.84;100527.03;5016879;28;45522;-85
2022/12/29 07:00:47;;;;;;;;;0.00;0.00;;;;;10.82;79.58;100523.59;5017044;28;67277;-85
2022/12/29 07:03:12;;;;;;;;;0.75;0.00;;;;;10.82;79.64;100536.63;5020271;28;50933;-85
2022/12/29 07:05:37;;;;;;;;;2.00;0.00;;;;;10.81;79.96;100533.19;5019868;28;57879;-85
2022/12/29 07:08:03;;;;;;;;;0.50;0.00;;;;;10.82;79.94;100537.47;5037671;28;62215;-85
2022/12/29 07:10:31;;;;;;;;;0.75;0.00;;;;;10.80;79.58;100544.47;5037716;28;45461;-85
2022/12/29 07:12:57;;;;;;;;;0.00;0.00;;;;;10.80;79.58;100539.28;5020572;28;45503;-86
2022/12/29 07:15:22;;;;;;;;;1.00;0.00;;;;;10.80;79.72;100538.44;5037640;28;53294;-85
2022/12/29 07:17:49;;;;;;;;;0.50;0.00;;;;;10.79;79.02;100540.19;5019790;28;58220;-85
2022/12/29 07:20:15;;;;;;;;;0.25;0.00;;;;;10.78;79.04;100529.81;5020340;28;45440;-85
2022/12/29 07:22:40;;;;;;;;;0.00;0.00;;;;;10.78;78.89;100535.03;5036725;28;45253;-85
2022/12/29 07:25:11;;;;;;;;;1.25;0.00;;;;;10.77;78.70;100542.00;5020054;28;45441;-85
2022/12/29 07:27:39;;;;;;;;;2.00;0.00;;;;;10.78;79.01;100546.28;5019486;28;48136;-85
2022/12/29 07:30:05;;;;;;;;;1.50;0.00;;;;;10.77;78.63;100549.81;5019464;28;61184;-85
2022/12/29 07:32:34;;;;;;;;;0.00;0.00;;;;;10.78;78.54;100553.25;5020223;28;45354;-85
2022/12/29 07:34:59;;;;;;;;;0.00;0.00;;;;;10.77;78.87;100552.41;5003502;28;45394;-85
2022/12/29 07:37:25;;;;;;;;;1.00;0.00;;;;;10.78;78.88;100559.31;5019249;28;58898;-85
2022/12/29 07:39:50;;;;;;;;;0.50;0.50;;;;;10.78;78.86;100563.66;5037896;28;45419;-85
2022/12/29 07:42:15;;;;;;;;;1.50;0.00;;;;;10.81;78.84;100568.78;5019032;28;56710;-85
2022/12/29 07:44:41;;;;;;;;;1.00;0.00;;;;;10.80;78.20;100573.13;5019611;28;51977;-85
2022/12/29 07:47:06;;;;;;;;;0.50;0.00;;;;;10.79;78.60;100573.16;5003080;28;47456;-85
2022/12/29 07:49:31;;;;;;;;;0.00;0.00;;;;;10.78;77.94;100585.34;5037101;28;52616;-86
2022/12/29 07:51:57;;;;;;;;;0.00;0.00;;;;;10.78;78.29;100587.09;5037493;28;47802;-86
2022/12/29 07:54:23;;;;;;;;;1.00;0.00;;;;;10.78;78.15;100587.09;5019131;28;59758;-86
2022/12/29 07:56:48;;;;;;;;;0.25;0.00;;;;;10.77;78.08;100596.66;5019349;28;46394;-85
2022/12/29 07:59:14;;;;;;;;;0.25;0.00;;;;;10.79;78.18;100607.00;5037177;28;52579;-85
2022/12/29 08:01:39;;;;;;;;;0.00;0.00;;;;;10.79;78.36;100612.22;5037419;28;45422;-85
2022/12/29 08:04:04;;;;;;;;;1.25;0.00;;;;;10.79;78.37;100620.03;5019135;28;55522;-86
2022/12/29 08:06:30;;;;;;;;;0.00;0.00;;;;;10.79;78.25;100610.50;5018777;28;60720;-86
2022/12/29 08:08:56;;;;;;;;;0.00;0.00;;;;;10.79;78.03;100613.09;5037534;28;45534;-85
2022/12/29 08:11:21;;;;;;;;;0.00;0.00;;;;;10.79;78.53;100625.22;5018625;28;45481;-85
2022/12/29 08:13:47;;;;;;;;;0.00;0.00;;;;;10.78;78.26;100623.56;5018385;28;45433;-85
2022/12/29 08:16:12;;;;;;;;;0.00;0.00;;;;;10.77;77.89;100630.50;5037163;28;46163;-85
2022/12/29 08:18:38;;;;;;;;;0.00;0.00;;;;;10.77;78.04;100633.13;5018524;28;62487;-85
2022/12/29 08:21:04;;;;;;;;;0.50;0.50;;;;;10.77;77.99;100625.31;5019400;28;45385;-85
2022/12/29 08:23:29;;;;;;;;;1.00;0.00;;;;;10.78;78.19;100632.19;5019355;28;45337;-85
2022/12/29 08:26:03;;;;;;;;;5.25;0.50;;;;;10.79;77.68;100633.03;5036474;28;45912;-85
2022/12/29 08:28:29;;;;;;;;;0.00;0.00;;;;;10.78;77.38;100636.56;5036989;28;45709;-85
2022/12/29 08:30:57;;;;;;;;;0.75;0.00;;;;;10.78;77.42;100645.22;5019216;28;45453;-86
2022/12/29 08:33:23;;;;;;;;;2.00;0.00;;;;;10.76;77.65;100641.81;5019168;28;45497;-85
2022/12/29 08:35:49;;;;;;;;;0.00;0.00;;;;;10.77;77.57;100650.47;5036889;28;46257;-85
2022/12/29 08:38:14;;;;;;;;;0.00;0.00;;;;;10.76;77.44;100657.44;5019035;28;45340;-85
2022/12/29 08:40:39;;;;;;;;;0.50;0.00;;;;;10.78;77.41;100654.78;5018477;28;45460;-86
2022/12/29 08:43:05;;;;;;;;;0.00;0.00;;;;;10.79;77.47;100657.34;5018685;28;51008;-85
2022/12/29 08:45:31;;;;;;;;;5.50;0.00;;;;;10.80;77.91;100668.63;5018624;28;46260;-86
2022/12/29 08:47:56;;;;;;;;;0.50;0.50;;;;;10.78;77.20;100668.66;5036988;28;45146;-86
2022/12/29 08:50:21;;;;;;;;;1.50;0.00;;;;;10.80;77.82;100669.47;5018557;28;51967;-86
2022/12/29 08:52:47;;;;;;;;;2.00;0.00;;;;;10.82;77.65;100667.66;5018412;28;50241;-86
2022/12/29 08:55:12;;;;;;;;;0.00;0.00;;;;;10.86;77.46;100684.03;5018366;28;46718;-86
2022/12/29 08:57:37;;;;;;;;;1.50;1.00;;;;;10.87;77.32;100688.34;5018218;28;59337;-86
2022/12/29 09:00:04;;;;;;;;;2.00;1.00;;;;;10.89;77.19;100691.75;5018389;28;55804;-85
2022/12/29 09:02:29;;;;;;;;;0.75;0.00;;;;;10.90;77.45;100687.41;5019051;28;45324;-85
2022/12/29 09:04:57;;;;;;;;;0.50;0.00;;;;;10.94;77.49;100697.69;5018017;28;71550;-84
2022/12/29 09:07:23;;;;;;;;;1.25;0.00;;;;;10.99;76.84;100694.94;5036489;28;45246;-85
2022/12/29 09:09:48;;;;;;;;;2.00;0.00;;;;;11.02;77.12;100687.88;5023183;28;45360;-85
2022/12/29 09:12:13;;;;;;;;;1.00;1.00;;;;;11.08;76.34;100699.00;5017987;28;57155;-85
2022/12/29 09:14:39;;;;;;;;;5.00;2.25;;;;;11.16;76.87;100700.47;5017859;28;62587;-85
2022/12/29 09:19:48;;;;;;;;;2.25;0.00;;;;;11.26;76.30;100694.97;5036440;28;45427;-85
2022/12/29 09:22:13;;;;;;;;;3.00;1.00;;;;;11.27;76.27;100709.69;5018586;28;45228;-85
2022/12/29 09:24:39;;;;;;;;;1.00;0.00;;;;;11.23;75.98;100706.31;5017235;28;51359;-85
2022/12/29 09:27:04;;;;;;;;;1.00;0.00;;;;;11.23;75.77;100711.53;5035805;28;45414;-85
2022/12/29 09:29:29;;;;;;;;;0.50;0.00;;;;;11.20;76.10;100716.88;5034361;28;54786;-85
2022/12/29 09:31:55;;;;;;;;;0.00;0.00;;;;;11.22;76.08;100722.88;5035657;28;58652;-85
2022/12/29 09:34:20;;;;;;;;;3.00;1.00;;;;;11.20;75.82;100717.72;5017984;28;45421;-85
2022/12/29 09:36:46;;;;;;;;;0.75;0.00;;;;;11.21;75.67;100723.75;5017755;28;61752;-84
2022/12/29 09:39:12;;;;;;;;;1.00;1.00;;;;;11.20;75.88;100730.75;5017224;28;55539;-85
2022/12/29 09:41:51;;;;;;;;;1.75;0.00;;;;;11.21;75.74;100731.56;5036003;28;45671;-85
2022/12/29 09:44:23;;;;;;;;;1.00;0.00;;;;;11.23;75.49;100727.16;5035952;28;46226;-85
2022/12/29 09:46:51;;;;;;;;;0.50;0.00;;;;;11.24;75.24;100732.34;5001404;28;45691;-85
2022/12/29 09:49:31;;;;;;;;;2.00;0.50;;;;;11.28;75.01;100740.06;5017829;28;45287;-85
2022/12/29 09:52:05;;;;;;;;;0.00;0.00;;;;;11.32;75.02;100741.66;5017278;28;45610;-85
2022/12/29 09:54:51;;;;;;;;;1.00;0.00;;;;;11.33;74.75;100753.78;5018225;28;46583;-85
2022/12/29 09:57:22;;;;;;;;;3.00;0.00;;;;;11.36;74.60;100751.09;5018110;28;45868;-85
2022/12/29 09:59:51;;;;;;;;;1.00;0.50;;;;;11.40;74.76;100747.47;5018425;28;45228;-85
2022/12/29 10:02:37;;;;;;;;;3.00;1.00;;;;;11.48;74.90;100757.66;5017908;28;45442;-85
2022/12/29 10:05:03;;;;;;;;;4.50;1.50;;;;;11.55;73.82;100760.03;5017596;28;45420;-85
2022/12/29 10:07:28;;;;;;;;;2.00;0.00;;;;;11.63;73.62;100762.38;5035133;28;45380;-84
2022/12/29 10:10:13;;;;;;;;;3.00;0.00;;;;;11.70;72.72;100768.22;5040473;28;45478;-85
2022/12/29 10:12:50;;;;;;;;;3.00;0.25;;;;;11.74;72.56;100768.09;5035751;28;45326;-86
2022/12/29 10:15:34;;;;;;;;;1.00;0.00;;;;;11.69;72.23;100764.78;5017313;28;48109;-85
2022/12/29 10:18:13;;;;;;;;;6.00;0.25;;;;;11.63;72.39;100773.66;5035396;28;45704;-85
2022/12/29 10:21:04;;;;;;;;;0.50;0.00;;;;;11.57;72.53;100773.88;5017460;28;45394;-85
2022/12/29 10:23:30;;;;;;;;;0.75;0.75;;;;;11.54;72.97;100765.28;5035387;28;45421;-85
2022/12/29 10:25:57;;;;;;;;;1.00;1.00;;;;;11.54;73.30;100773.13;5017365;28;48624;-85
2022/12/29 10:28:30;;;;;;;;;4.00;0.00;;;;;11.50;72.73;100769.75;5035223;28;45240;-85
2022/12/29 10:30:58;;;;;;;;;3.25;0.00;;;;;11.47;72.81;100769.84;5017731;28;45533;-85
2022/12/29 10:33:32;;;;;;;;;2.75;0.00;;;;;11.47;72.43;100771.59;5017736;28;45464;-86
2022/12/29 10:35:58;;;;;;;;;1.00;1.00;;;;;11.43;72.63;100766.47;5018131;28;45316;-85
2022/12/29 10:38:36;;;;;;;;;1.50;0.50;;;;;11.41;72.94;100750.03;5020945;28;45541;-85
2022/12/29 10:41:28;;;;;;;;;6.25;3.50;;;;;11.40;72.57;100756.16;5020857;28;45402;-85
2022/12/29 10:43:57;;;;;;;;;6.25;2.00;;;;;11.40;72.61;100758.78;5021058;28;45280;-85
2022/12/29 10:46:26;;;;;;;;;2.00;0.00;;;;;11.47;72.71;100761.16;5038954;28;46537;-86
2022/12/29 10:48:51;;;;;;;;;19.00;6.75;;;;;11.59;72.36;100766.00;5021151;28;45915;-86
2022/12/29 10:51:24;;;;;;;;;7.50;2.00;;;;;11.78;72.11;100759.25;5039747;28;45365;-86
2022/12/29 10:54:20;;;;;;;;;4.25;1.25;;;;;11.96;72.05;100762.16;5021591;28;45455;-85
2022/12/29 10:57:03;;;;;;;;;12.00;3.00;;;;;11.99;71.03;100752.47;5020015;28;45510;-85
2022/12/29 10:59:35;;;;;;;;;5.75;1.00;;;;;12.16;70.99;100757.09;5020974;28;45560;-85
2022/12/29 11:02:09;;;;;;;;;4.50;1.00;;;;;12.30;70.65;100758.41;5020547;28;45465;-86
2022/12/29 11:04:51;;;;;;;;;4.50;0.25;;;;;12.50;70.54;100761.13;5037959;28;45161;-85
2022/12/29 11:07:18;;;;;;;;;1.50;1.00;;;;;12.94;69.10;100766.44;5020449;28;46547;-85
2022/12/29 11:09:44;;;;;;;;;2.25;1.00;;;;;13.30;68.01;100762.47;5020094;28;45267;-85
2022/12/29 11:12:24;;;;;;;;;4.00;1.00;;;;;13.84;67.77;100757.69;5036834;28;45459;-85
2022/12/29 11:15:07;;;;;;;;;3.75;1.00;;;;;14.27;66.64;100755.84;5038153;28;45351;-85
2022/12/29 11:17:48;;;;;;;;;4.75;2.00;;;;;15.07;66.25;100753.06;5020004;28;47455;-85
2022/12/29 11:20:28;;;;;;;;;2.00;2.00;;;;;15.49;62.90;100762.41;5037614;28;45739;-85
2022/12/29 11:22:53;;;;;;;;;0.00;0.00;;;;;15.47;62.10;100758.16;5020256;28;45422;-85
2022/12/29 11:25:19;;;;;;;;;1.00;0.50;;;;;15.42;61.70;100762.78;5020185;28;45397;-85
2022/12/29 11:28:00;;;;;;;;;2.50;1.00;;;;;15.26;61.76;100754.81;5035922;28;55821;-86
2022/12/29 11:30:29;;;;;;;;;0.25;0.25;;;;;15.31;61.82;100763.31;5020153;28;45329;-85
2022/12/29 11:32:56;;;;;;;;;1.00;0.00;;;;;15.49;61.67;100770.28;5038139;28;45660;-85
2022/12/29 11:35:35;;;;;;;;;3.75;1.25;;;;;15.38;60.64;100766.47;5037491;28;45414;-85
2022/12/29 11:38:02;;;;;;;;;1.75;1.00;;;;;15.12;60.64;100779.06;5037503;28;46884;-85
2022/12/29 11:40:28;;;;;;;;;1.00;0.25;;;;;15.10;59.74;100775.69;5036286;28;45686;-86
2022/12/29 11:42:56;;;;;;;;;1.25;0.00;;;;;14.99;59.11;100772.69;5037389;28;49417;-85
2022/12/29 11:45:26;;;;;;;;;1.50;0.75;;;;;14.84;59.25;100779.50;5019826;28;45350;-84
2022/12/29 11:48:04;;;;;;;;;3.00;1.00;;;;;14.52;60.74;100771.28;5019348;28;46675;-85
2022/12/29 11:50:32;;;;;;;;;3.00;1.75;;;;;14.45;60.89;100757.63;5832806;22;45477;-85
2022/12/29 11:53:16;;;;;;;;;5.25;1.00;;;;;15.10;60.82;100762.56;5042501;28;45541;-85
2022/12/29 11:55:51;;;;;;;;;1.00;0.25;;;;;15.57;58.72;100753.31;5040997;28;45614;-85
2022/12/29 11:58:16;;;;;;;;;2.00;1.00;;;;;16.33;59.68;100755.63;5023005;28;47884;-85
2022/12/29 12:00:44;;;;;;;;;2.00;0.00;;;;;16.82;57.58;100753.84;5039697;28;45336;-86
2022/12/29 12:03:22;;;;;;;;;2.50;1.00;;;;;17.83;55.22;100735.00;5057294;28;45369;-85
2022/12/29 12:05:54;;;;;;;;;2.75;1.00;;;;;18.44;53.98;100735.75;5022821;28;45311;-84